Terminal Aerodrome Forecast
Issued by NWS Sterling, VA

Current Version | Previous Version | Graphics & Text | Print | Product List | Glossary On
Versions: 1 2 3 4 5 6 7 8 9 10 11 12 13 14 15 16 17 18 19 20
000
FTUS41 KLWX 191142 RRA
TAFMRB
TAF
KMRB 191142Z 1912/2012 06007KT P6SM BKN250
     FM191500 11012KT P6SM BKN200
     FM192200 10009KT 6SM -RA OVC090
     FM200100 09010KT 3SM RA OVC020
     FM200500 06012KT 3SM RA OVC003 WS020/12040KT
     FM200800 06009KT 3SM RA OVC003 WS020/13040KT
     FM201000 03006KT 3SM -RA OVC003 WS020/14030KT
     FM201100 34006KT 3SM -RA OVC003=

USA.gov is the U.S. government's official web portal to all federal, state and local government web resources and services.